createdAt,value
2018-12-17T00:01:16.427Z,101328.20
2018-12-17T00:04:20.656Z,101323.00
2018-12-17T00:07:24.895Z,101340.21
2018-12-17T00:10:29.196Z,101343.39
2018-12-17T00:13:33.563Z,101346.06
2018-12-17T00:16:37.808Z,101352.23
2018-12-17T00:19:42.146Z,101355.75
2018-12-17T00:22:46.387Z,101356.95
2018-12-17T00:25:50.671Z,101348.65
2018-12-17T00:28:55.023Z,101348.84
2018-12-17T00:31:59.264Z,101345.35
2018-12-17T00:35:04.056Z,101353.22
2018-12-17T00:38:08.360Z,101355.61
2018-12-17T00:41:12.685Z,101354.12
2018-12-17T00:44:16.976Z,101368.67
2018-12-17T00:47:21.283Z,101364.19
2018-12-17T00:50:25.510Z,101367.67
2018-12-17T00:53:29.740Z,101361.00
2018-12-17T00:56:34.135Z,101371.20
2018-12-17T00:59:38.431Z,101381.60
2018-12-17T01:02:42.774Z,101383.93
2018-12-17T01:05:47.206Z,101380.41
2018-12-17T01:08:51.519Z,101380.89
2018-12-17T01:11:55.744Z,101379.08
2018-12-17T01:15:00.136Z,101389.13
2018-12-17T01:18:04.495Z,101397.48
2018-12-17T01:21:08.820Z,101399.67
2018-12-17T01:24:13.227Z,101403.31
2018-12-17T01:27:17.584Z,101406.35
2018-12-17T01:30:22.730Z,101408.88
2018-12-17T01:33:26.987Z,101404.88
2018-12-17T01:36:31.283Z,101407.03
2018-12-17T01:39:35.502Z,101414.08
2018-12-17T01:42:39.740Z,101410.55
2018-12-17T01:45:44.075Z,101419.91
2018-12-17T01:48:48.390Z,101412.75
2018-12-17T01:51:52.638Z,101414.77
2018-12-17T01:54:56.886Z,101403.88
2018-12-17T01:58:01.107Z,101408.51
2018-12-17T02:01:05.522Z,101408.94
2018-12-17T02:04:09.799Z,101401.58
2018-12-17T02:07:15.276Z,101411.55
2018-12-17T02:10:19.669Z,101412.17
2018-12-17T02:13:23.948Z,101401.83
2018-12-17T02:16:28.223Z,101400.50
2018-12-17T02:19:32.493Z,101396.16
2018-12-17T02:22:36.716Z,101394.62
2018-12-17T02:25:40.984Z,101395.09
2018-12-17T02:28:45.264Z,101391.09
2018-12-17T02:31:49.520Z,101401.77
2018-12-17T02:34:53.727Z,101396.91
2018-12-17T02:37:57.979Z,101400.92
2018-12-17T02:41:02.227Z,101402.91
2018-12-17T02:44:06.877Z,101393.84
2018-12-17T02:47:11.179Z,101398.81
2018-12-17T02:50:15.603Z,101418.70
2018-12-17T02:53:19.867Z,101423.22
2018-12-17T02:56:24.123Z,101424.56
2018-12-17T02:59:28.351Z,101424.19
2018-12-17T03:02:32.687Z,101417.66
2018-12-17T03:05:37.003Z,101424.95
2018-12-17T03:08:41.259Z,101431.77
2018-12-17T03:11:45.533Z,101425.60
2018-12-17T03:14:49.781Z,101441.11
2018-12-17T03:17:54.334Z,101440.86
2018-12-17T03:20:58.645Z,101443.53
2018-12-17T03:24:02.995Z,101440.01
2018-12-17T03:27:07.287Z,101445.62
2018-12-17T03:30:11.660Z,101453.13
2018-12-17T03:33:15.951Z,101463.33
2018-12-17T03:36:20.306Z,101461.71
2018-12-17T03:39:24.600Z,101463.28
2018-12-17T03:42:28.815Z,101465.81
2018-12-17T03:45:33.113Z,101471.98
2018-12-17T03:48:37.373Z,101466.16
2018-12-17T03:51:41.712Z,101462.62
2018-12-17T03:54:46.035Z,101473.69
2018-12-17T03:57:50.447Z,101476.90
2018-12-17T04:00:55.055Z,101478.09
2018-12-17T04:03:59.295Z,101472.75
2018-12-17T04:07:04.549Z,101471.55
2018-12-17T04:10:08.854Z,101472.41
2018-12-17T04:13:13.217Z,101476.14
2018-12-17T04:16:17.541Z,101471.65
2018-12-17T04:19:22.967Z,101480.14
2018-12-17T04:22:28.371Z,101485.00
2018-12-17T04:25:32.779Z,101488.53
2018-12-17T04:28:37.134Z,101487.05
2018-12-17T04:31:41.395Z,101487.81
2018-12-17T04:34:45.659Z,101485.77
2018-12-17T04:37:49.891Z,101489.91
2018-12-17T04:40:57.959Z,101492.52
2018-12-17T04:44:06.103Z,101485.27
2018-12-17T04:47:29.360Z,101484.78
2018-12-17T04:50:37.729Z,101479.78
2018-12-17T04:54:09.055Z,101490.47
2018-12-17T04:57:19.745Z,101499.33
2018-12-17T05:00:44.770Z,101502.20
2018-12-17T05:03:49.249Z,101508.74
2018-12-17T05:07:12.844Z,101507.55
2018-12-17T05:14:18.187Z,101523.91
2018-12-17T05:17:35.764Z,101526.82
2018-12-17T05:20:43.724Z,101530.45
2018-12-17T05:24:13.545Z,101536.17
2018-12-17T05:30:59.347Z,101547.67
2018-12-17T05:34:22.998Z,101546.20
2018-12-17T05:41:15.736Z,101557.16
2018-12-17T05:55:26.860Z,101568.36
2018-12-17T06:02:25.848Z,101571.71
2018-12-17T06:05:33.247Z,101578.39
2018-12-17T06:08:43.623Z,101580.78
2018-12-17T06:15:43.486Z,101583.97
2018-12-17T06:18:58.338Z,101594.41
2018-12-17T06:29:21.635Z,101604.00
2018-12-17T06:32:45.713Z,101612.25
2018-12-17T06:35:59.680Z,101604.72
2018-12-17T06:39:20.170Z,101618.20
2018-12-17T06:46:08.446Z,101622.14
2018-12-17T06:49:12.907Z,101626.28
2018-12-17T06:52:29.556Z,101627.89
2018-12-17T07:06:40.971Z,101645.05
2018-12-17T07:09:51.102Z,101654.73
2018-12-17T07:16:38.860Z,101651.83
2018-12-17T07:19:54.184Z,101654.70
2018-12-17T07:30:21.235Z,101654.92
2018-12-17T07:37:21.193Z,101671.66
2018-12-17T07:40:38.196Z,101669.58
2018-12-17T07:47:46.797Z,101672.94
2018-12-17T07:50:57.949Z,101683.38
2018-12-17T08:01:27.753Z,101708.22
2018-12-17T08:04:33.760Z,101696.20
2018-12-17T08:07:50.643Z,101699.22
2018-12-17T08:11:09.862Z,101700.55
2018-12-17T08:21:28.154Z,101706.93
2018-12-17T08:24:45.263Z,101708.13
2018-12-17T08:27:55.844Z,101708.47
2018-12-17T08:31:24.669Z,101710.66
2018-12-17T08:34:30.642Z,101718.17
2018-12-17T08:37:35.042Z,101716.02
2018-12-17T08:44:17.271Z,101725.09
2018-12-17T08:54:41.664Z,101735.72
2018-12-17T08:57:55.745Z,101732.91
2018-12-17T09:08:44.113Z,101746.66
2018-12-17T09:15:27.207Z,101742.00
2018-12-17T09:22:18.139Z,101745.09
2018-12-17T09:25:23.022Z,101747.28
2018-12-17T09:28:43.788Z,101746.14
2018-12-17T09:35:26.315Z,101746.87
2018-12-17T09:38:30.879Z,101751.73
2018-12-17T09:41:46.989Z,101756.09
2018-12-17T09:45:17.313Z,101759.83
2018-12-17T09:48:25.175Z,101765.45
2018-12-17T09:51:35.831Z,101756.09
2018-12-17T09:54:48.428Z,101748.30
2018-12-17T09:57:58.691Z,101746.83
2018-12-17T10:01:03.003Z,101752.25
2018-12-17T10:04:07.255Z,101738.59
2018-12-17T10:07:11.480Z,101735.78
2018-12-17T10:10:15.847Z,101737.47
2018-12-17T10:13:20.162Z,101739.75
2018-12-17T10:16:24.623Z,101743.62
2018-12-17T10:19:47.911Z,101738.28
2018-12-17T10:22:52.207Z,101729.13
2018-12-17T10:26:03.811Z,101733.85
2018-12-17T10:29:35.535Z,101731.38
2018-12-17T10:32:43.772Z,101727.94
2018-12-17T10:35:51.683Z,101728.52
2018-12-17T10:38:55.896Z,101728.52
2018-12-17T10:42:00.160Z,101717.68
2018-12-17T10:45:04.794Z,101716.34
2018-12-17T10:48:09.101Z,101715.41
2018-12-17T10:51:13.378Z,101708.81
2018-12-17T10:54:17.965Z,101713.54
2018-12-17T10:57:22.279Z,101718.61
2018-12-17T11:00:31.783Z,101723.59
2018-12-17T11:03:41.135Z,101737.68
2018-12-17T11:06:45.779Z,101744.57
2018-12-17T11:09:50.029Z,101750.02
2018-12-17T11:12:54.269Z,101749.45
2018-12-17T11:15:58.672Z,101750.16
2018-12-17T11:19:02.952Z,101755.72
2018-12-17T11:22:07.216Z,101744.67
2018-12-17T11:25:11.519Z,101740.66
2018-12-17T11:28:19.863Z,101746.35
2018-12-17T11:31:24.299Z,101741.48
2018-12-17T11:34:37.352Z,101740.80
2018-12-17T11:37:49.695Z,101746.63
2018-12-17T11:41:06.472Z,101757.20
2018-12-17T11:51:20.975Z,101751.36
2018-12-17T11:54:25.439Z,101747.63
2018-12-17T11:58:36.996Z,101743.95
2018-12-17T12:01:41.388Z,101741.48
2018-12-17T12:04:45.630Z,101750.37
2018-12-17T12:07:49.911Z,101757.40
2018-12-17T12:10:54.276Z,101754.58
2018-12-17T12:13:58.518Z,101765.00
2018-12-17T12:17:02.840Z,101758.17
2018-12-17T12:20:07.366Z,101759.03
2018-12-17T12:23:11.652Z,101760.36
2018-12-17T12:26:16.060Z,101763.75
2018-12-17T12:29:20.379Z,101768.11
2018-12-17T12:32:24.876Z,101772.64
2018-12-17T12:35:29.305Z,101766.44
2018-12-17T12:38:33.585Z,101771.70
2018-12-17T12:41:38.323Z,101774.23
2018-12-17T12:44:42.647Z,101769.73
2018-12-17T12:47:47.101Z,101775.09
2018-12-17T12:50:51.494Z,101764.86
2018-12-17T12:53:56.061Z,101774.89
2018-12-17T12:57:00.855Z,101770.36
2018-12-17T13:00:09.421Z,101769.53
2018-12-17T13:03:13.704Z,101772.22
2018-12-17T13:06:18.235Z,101774.89
2018-12-17T13:09:22.961Z,101766.34
2018-12-17T13:12:27.273Z,101758.97
2018-12-17T13:15:31.587Z,101763.95
2018-12-17T13:18:35.897Z,101767.97
2018-12-17T13:21:40.313Z,101765.28
2018-12-17T13:24:44.567Z,101761.12
2018-12-17T13:27:48.883Z,101758.11
2018-12-17T13:30:53.116Z,101759.31
2018-12-17T13:33:57.355Z,101767.34
2018-12-17T13:37:01.613Z,101768.53
2018-12-17T13:40:09.001Z,101768.20
2018-12-17T13:43:13.312Z,101766.00
2018-12-17T13:46:17.640Z,101769.67
2018-12-17T13:49:21.964Z,101774.61
2018-12-17T13:52:31.507Z,101773.75
2018-12-17T13:55:35.826Z,101771.78
2018-12-17T13:58:40.038Z,101765.23
2018-12-17T14:01:51.188Z,101773.89
2018-12-17T14:04:50.760Z,101775.71
2018-12-17T14:07:54.980Z,101778.39
2018-12-17T14:10:59.183Z,101781.30
2018-12-17T14:14:03.610Z,101785.80
2018-12-17T14:17:13.231Z,101804.39
2018-12-17T14:20:22.820Z,101809.13
2018-12-17T14:23:27.196Z,101816.53
2018-12-17T14:26:31.444Z,101813.86
2018-12-17T14:29:35.671Z,101818.70
2018-12-17T14:32:39.856Z,101825.11
2018-12-17T14:35:49.414Z,101834.86
2018-12-17T14:38:53.723Z,101836.54
2018-12-17T14:41:58.080Z,101838.22
2018-12-17T14:45:02.293Z,101841.03
2018-12-17T14:48:06.636Z,101835.82
2018-12-17T14:51:10.899Z,101839.22
2018-12-17T14:54:15.202Z,101836.54
2018-12-17T14:57:19.423Z,101836.05
2018-12-17T15:00:23.713Z,101834.20
2018-12-17T15:03:28.009Z,101836.05
2018-12-17T15:06:32.329Z,101835.20
2018-12-17T15:09:36.557Z,101828.50
2018-12-17T15:12:40.948Z,101820.81
2018-12-17T15:15:45.133Z,101813.58
2018-12-17T15:18:49.378Z,101813.92
2018-12-17T15:21:53.595Z,101805.75
2018-12-17T15:24:57.908Z,101815.31
2018-12-17T15:28:02.353Z,101822.67
2018-12-17T15:31:06.626Z,101840.07
2018-12-17T15:34:10.855Z,101847.83
2018-12-17T15:37:15.191Z,101839.84
2018-12-17T15:40:19.391Z,101840.47
2018-12-17T15:43:23.600Z,101844.86
2018-12-17T15:46:27.803Z,101849.73
2018-12-17T15:49:32.076Z,101850.86
2018-12-17T15:52:36.290Z,101853.05
2018-12-17T15:55:40.486Z,101845.30
2018-12-17T15:58:44.687Z,101852.48
2018-12-17T16:01:50.163Z,101847.98
2018-12-17T16:04:54.695Z,101859.52
2018-12-17T16:07:58.930Z,101865.45
2018-12-17T16:11:03.111Z,101859.75
2018-12-17T16:14:07.403Z,101861.91
2018-12-17T16:17:11.687Z,101858.13
2018-12-17T16:20:16.038Z,101851.29
2018-12-17T16:23:20.331Z,101855.65
2018-12-17T16:26:24.751Z,101852.62
2018-12-17T16:29:29.039Z,101856.98
2018-12-17T16:32:33.411Z,101879.75
2018-12-17T16:35:38.337Z,101881.47
2018-12-17T16:38:43.392Z,101881.81
2018-12-17T16:41:48.206Z,101888.02
2018-12-17T16:44:52.732Z,101887.74
2018-12-17T16:47:57.213Z,101893.78
2018-12-17T16:51:02.520Z,101891.48
2018-12-17T16:54:06.887Z,101897.52
2018-12-17T16:57:11.111Z,101914.80
2018-12-17T17:00:15.499Z,101918.33
2018-12-17T17:03:19.723Z,101912.34
2018-12-17T17:06:24.063Z,101920.73
2018-12-17T17:09:28.283Z,101921.92
2018-12-17T17:12:32.478Z,101923.50
2018-12-17T17:15:36.883Z,101925.66
2018-12-17T17:18:41.103Z,101926.09
2018-12-17T17:21:45.440Z,101925.76
2018-12-17T17:24:49.660Z,101931.45
2018-12-17T17:27:53.951Z,101930.83
2018-12-17T17:30:58.163Z,101938.59
2018-12-17T17:34:02.392Z,101940.98
2018-12-17T17:37:06.680Z,101946.69
2018-12-17T17:40:11.158Z,101940.70
2018-12-17T17:43:15.355Z,101938.02
2018-12-17T17:46:19.666Z,101935.34
2018-12-17T17:49:23.911Z,101938.36
2018-12-17T17:52:28.225Z,101930.05
2018-12-17T17:55:32.570Z,101937.74
2018-12-17T17:58:37.096Z,101946.13
2018-12-17T18:01:43.101Z,101937.45
2018-12-17T18:04:47.574Z,101940.00
2018-12-17T18:07:51.795Z,101938.89
2018-12-17T18:10:56.147Z,101937.55
2018-12-17T18:14:00.438Z,101939.23
2018-12-17T18:17:04.851Z,101935.83
2018-12-17T18:20:09.277Z,101937.66
2018-12-17T18:23:13.545Z,101934.01
2018-12-17T18:26:17.779Z,101937.66
2018-12-17T18:29:21.983Z,101937.31
2018-12-17T18:32:26.379Z,101940.48
2018-12-17T18:35:30.778Z,101935.69
2018-12-17T18:38:34.971Z,101930.47
2018-12-17T18:41:39.343Z,101943.88
2018-12-17T18:44:43.622Z,101939.52
2018-12-17T18:47:47.873Z,101937.80
2018-12-17T18:50:52.286Z,101942.67
2018-12-17T18:53:57.539Z,101948.37
2018-12-17T18:57:01.729Z,101951.06
2018-12-17T19:00:07.235Z,101957.51
2018-12-17T19:03:11.438Z,101955.51
2018-12-17T19:06:15.715Z,101951.72
2018-12-17T19:09:19.895Z,101948.67
2018-12-17T19:12:24.099Z,101949.19
2018-12-17T19:15:28.419Z,101966.95
2018-12-17T19:18:32.618Z,101965.66
2018-12-17T19:21:37.043Z,101968.72
2018-12-17T19:24:41.383Z,101961.87
2018-12-17T19:27:45.708Z,101962.36
2018-12-17T19:30:50.075Z,101963.22
2018-12-17T19:33:54.460Z,101958.67
2018-12-17T19:36:58.764Z,101971.60
2018-12-17T19:40:03.062Z,101973.80
2018-12-17T19:43:07.410Z,101970.60
2018-12-17T19:46:11.638Z,101972.31
2018-12-17T19:49:15.839Z,101970.27
2018-12-17T19:52:20.106Z,101978.93
2018-12-17T19:55:24.380Z,101984.01
2018-12-17T19:58:28.774Z,101986.06
2018-12-17T20:01:33.051Z,101983.47
2018-12-17T20:04:37.371Z,101987.64
2018-12-17T20:07:41.575Z,101988.46
2018-12-17T20:10:45.875Z,101987.50
2018-12-17T20:13:50.087Z,101995.54
2018-12-17T20:16:54.351Z,101999.05
2018-12-17T20:19:58.724Z,102004.13
2018-12-17T20:23:02.951Z,102008.52
2018-12-17T20:26:07.139Z,102013.59
2018-12-17T20:29:12.635Z,102005.03
2018-12-17T20:32:17.000Z,101998.48
2018-12-17T20:35:21.207Z,101985.92
2018-12-17T20:38:25.469Z,101992.77
2018-12-17T20:41:29.768Z,101992.77
2018-12-17T20:44:34.081Z,102000.81
2018-12-17T20:47:38.371Z,101997.65
2018-12-17T20:50:42.585Z,101996.17
2018-12-17T20:53:46.792Z,101987.13
2018-12-17T20:56:51.158Z,101989.46
2018-12-17T20:59:55.368Z,101996.17
2018-12-17T21:03:00.427Z,101982.62
2018-12-17T21:06:05.011Z,101981.47
2018-12-17T21:09:09.802Z,101985.35
2018-12-17T21:12:14.015Z,101985.87
2018-12-17T21:15:18.240Z,101984.02
2018-12-17T21:18:22.599Z,101974.14
2018-12-17T21:21:26.877Z,101970.97
2018-12-17T21:24:31.094Z,101973.80
2018-12-17T21:27:35.264Z,101977.11
2018-12-17T21:30:39.559Z,101972.37
2018-12-17T21:33:43.757Z,101977.25
2018-12-17T21:36:47.998Z,101974.42
2018-12-17T21:39:52.239Z,101973.42
2018-12-17T21:42:56.439Z,101979.16
2018-12-17T21:46:00.651Z,101986.84
2018-12-17T21:49:04.937Z,101984.53
2018-12-17T21:52:09.133Z,101984.02
2018-12-17T21:55:13.435Z,101983.53
2018-12-17T21:58:17.640Z,101978.87
2018-12-17T22:01:21.857Z,101978.02
2018-12-17T22:04:26.154Z,101974.85
2018-12-17T22:07:30.444Z,101979.02
2018-12-17T22:10:36.247Z,101983.87
2018-12-17T22:13:40.440Z,101987.89
2018-12-17T22:16:44.722Z,101983.53
2018-12-17T22:19:48.987Z,101988.27
2018-12-17T22:22:53.179Z,101989.95
2018-12-17T22:25:57.466Z,101988.46
2018-12-17T22:29:01.679Z,101989.66
2018-12-17T22:32:05.987Z,101994.69
2018-12-17T22:35:10.427Z,101995.87
2018-12-17T22:38:14.668Z,101999.91
2018-12-17T22:41:18.883Z,102007.95
2018-12-17T22:44:23.179Z,102006.23
2018-12-17T22:47:27.403Z,102014.14
2018-12-17T22:50:31.771Z,102002.73
2018-12-17T22:53:35.992Z,101996.84
2018-12-17T22:56:40.211Z,101994.69
2018-12-17T22:59:44.403Z,102004.41
2018-12-17T23:02:48.607Z,101997.56
2018-12-17T23:05:53.010Z,101988.17
2018-12-17T23:09:02.851Z,101988.66
2018-12-17T23:12:24.314Z,101989.66
2018-12-17T23:15:45.671Z,101992.05
2018-12-17T23:18:48.559Z,101982.18
2018-12-17T23:21:52.948Z,101979.13
2018-12-17T23:24:57.163Z,101977.30
2018-12-17T23:28:01.544Z,101985.69
2018-12-17T23:31:05.903Z,101978.30
2018-12-17T23:34:10.357Z,101980.47
2018-12-17T23:37:14.693Z,101990.23
2018-12-17T23:40:19.051Z,101997.76
2018-12-17T23:43:23.440Z,101998.13
2018-12-17T23:46:27.707Z,101995.45
2018-12-17T23:49:31.992Z,102000.67
2018-12-17T23:52:36.222Z,101995.16
2018-12-17T23:55:40.423Z,102005.27
2018-12-17T23:58:44.682Z,102003.41
